Crowley Lake, California
Current Conditions -  °F | °C
As of 9:15 PM on Tuesday 25 Nov 2014 (Local Time) from KMMH Reporting Station
Clear Clear  
Wind Chill: 35°   Ceiling: Unl
Heat Index: 39°   Visibility: 10mi
Dew Point: 19°   Wind: 6mph
Humidity: 45%   Direction: 330°NNW
Pressure: 30.56"   Gusts: NA
Location:  37.6599°N, 118.912°W
Report Text: KMMH 260515Z AUTO 33005KT 10SM CLR 04/M07 A3056 RMK AO1
Loading
Personal Weather Stations






























Interactive Weather Map New forecast layout! Learn more

10-Day Weather Forecast

Advertisements
Track Severe Weather on mobile